sensor_id;sensor_type;location;lat;lon;timestamp;temperature;humidity
29321;DHT22;16323;51.130;6.612;2023-05-20T00:00:01;19.70;57.40
29321;DHT22;16323;51.130;6.612;2023-05-20T00:02:28;19.60;56.20
29321;DHT22;16323;51.130;6.612;2023-05-20T00:04:54;19.70;56.80
29321;DHT22;16323;51.130;6.612;2023-05-20T00:07:21;19.70;56.70
29321;DHT22;16323;51.130;6.612;2023-05-20T00:09:48;19.70;56.60
29321;DHT22;16323;51.130;6.612;2023-05-20T00:12:17;19.70;56.60
29321;DHT22;16323;51.130;6.612;2023-05-20T00:14:44;19.70;56.40
29321;DHT22;16323;51.130;6.612;2023-05-20T00:17:11;19.70;56.40
29321;DHT22;16323;51.130;6.612;2023-05-20T00:19:37;19.70;56.50
29321;DHT22;16323;51.130;6.612;2023-05-20T00:22:04;19.70;56.60
29321;DHT22;16323;51.130;6.612;2023-05-20T00:24:31;19.70;55.80
29321;DHT22;16323;51.130;6.612;2023-05-20T00:26:58;19.80;55.90
29321;DHT22;16323;51.130;6.612;2023-05-20T00:29:26;19.80;55.80
29321;DHT22;16323;51.130;6.612;2023-05-20T00:31:53;19.80;55.80
29321;DHT22;16323;51.130;6.612;2023-05-20T00:34:20;19.80;55.90
29321;DHT22;16323;51.130;6.612;2023-05-20T00:36:46;19.80;55.90
29321;DHT22;16323;51.130;6.612;2023-05-20T00:39:13;19.80;56.10
29321;DHT22;16323;51.130;6.612;2023-05-20T00:41:40;19.80;56.00
29321;DHT22;16323;51.130;6.612;2023-05-20T00:44:07;19.80;56.00
29321;DHT22;16323;51.130;6.612;2023-05-20T00:46:35;19.70;56.00
29321;DHT22;16323;51.130;6.612;2023-05-20T00:49:02;19.70;55.90
29321;DHT22;16323;51.130;6.612;2023-05-20T00:51:30;19.70;55.90
29321;DHT22;16323;51.130;6.612;2023-05-20T00:53:57;19.70;55.90
29321;DHT22;16323;51.130;6.612;2023-05-20T00:56:24;19.70;56.00
29321;DHT22;16323;51.130;6.612;2023-05-20T00:58:51;19.70;56.00
29321;DHT22;16323;51.130;6.612;2023-05-20T01:01:18;19.70;56.00
29321;DHT22;16323;51.130;6.612;2023-05-20T01:03:46;19.70;56.10
29321;DHT22;16323;51.130;6.612;2023-05-20T01:06:13;19.70;55.90
29321;DHT22;16323;51.130;6.612;2023-05-20T01:08:40;19.60;55.70
29321;DHT22;16323;51.130;6.612;2023-05-20T01:11:12;19.70;56.00
29321;DHT22;16323;51.130;6.612;2023-05-20T01:13:54;19.70;56.10
29321;DHT22;16323;51.130;6.612;2023-05-20T01:16:22;19.70;56.10
29321;DHT22;16323;51.130;6.612;2023-05-20T01:18:54;19.70;56.40
29321;DHT22;16323;51.130;6.612;2023-05-20T01:21:22;19.60;56.30
29321;DHT22;16323;51.130;6.612;2023-05-20T01:23:50;19.70;56.50
29321;DHT22;16323;51.130;6.612;2023-05-20T01:26:17;19.70;56.60
29321;DHT22;16323;51.130;6.612;2023-05-20T01:28:46;19.70;56.50
29321;DHT22;16323;51.130;6.612;2023-05-20T01:31:18;19.70;56.50
29321;DHT22;16323;51.130;6.612;2023-05-20T01:33:49;19.70;56.50
29321;DHT22;16323;51.130;6.612;2023-05-20T01:36:18;19.60;56.50
29321;DHT22;16323;51.130;6.612;2023-05-20T01:38:47;19.60;56.60
29321;DHT22;16323;51.130;6.612;2023-05-20T01:41:16;19.60;56.50
29321;DHT22;16323;51.130;6.612;2023-05-20T01:43:43;19.60;56.30
29321;DHT22;16323;51.130;6.612;2023-05-20T01:46:10;19.60;56.40
29321;DHT22;16323;51.130;6.612;2023-05-20T01:48:37;19.60;56.20
29321;DHT22;16323;51.130;6.612;2023-05-20T01:51:04;19.60;56.20
29321;DHT22;16323;51.130;6.612;2023-05-20T01:53:31;19.60;56.20
29321;DHT22;16323;51.130;6.612;2023-05-20T01:55:57;19.60;56.30
29321;DHT22;16323;51.130;6.612;2023-05-20T01:58:26;19.60;56.10
29321;DHT22;16323;51.130;6.612;2023-05-20T02:00:52;19.60;56.20
29321;DHT22;16323;51.130;6.612;2023-05-20T02:03:19;19.60;56.20
29321;DHT22;16323;51.130;6.612;2023-05-20T02:05:46;19.60;56.00
29321;DHT22;16323;51.130;6.612;2023-05-20T02:08:13;19.60;56.10
29321;DHT22;16323;51.130;6.612;2023-05-20T02:10:40;19.60;56.20
29321;DHT22;16323;51.130;6.612;2023-05-20T02:13:07;19.60;56.30
29321;DHT22;16323;51.130;6.612;2023-05-20T02:15:35;19.60;56.30
29321;DHT22;16323;51.130;6.612;2023-05-20T02:18:01;19.60;56.50
29321;DHT22;16323;51.130;6.612;2023-05-20T02:20:29;19.60;56.50
29321;DHT22;16323;51.130;6.612;2023-05-20T02:22:56;19.60;56.60
29321;DHT22;16323;51.130;6.612;2023-05-20T02:25:23;19.60;56.60
29321;DHT22;16323;51.130;6.612;2023-05-20T02:27:50;19.60;56.60
29321;DHT22;16323;51.130;6.612;2023-05-20T02:30:17;19.60;56.60
29321;DHT22;16323;51.130;6.612;2023-05-20T02:32:45;19.60;56.60
29321;DHT22;16323;51.130;6.612;2023-05-20T02:35:12;19.60;56.50
29321;DHT22;16323;51.130;6.612;2023-05-20T02:37:39;19.60;56.50
29321;DHT22;16323;51.130;6.612;2023-05-20T02:40:07;19.60;56.50
29321;DHT22;16323;51.130;6.612;2023-05-20T02:42:34;19.60;56.20
29321;DHT22;16323;51.130;6.612;2023-05-20T02:45:01;19.60;56.20
29321;DHT22;16323;51.130;6.612;2023-05-20T02:47:28;19.60;56.00
29321;DHT22;16323;51.130;6.612;2023-05-20T02:49:56;19.60;55.90
29321;DHT22;16323;51.130;6.612;2023-05-20T02:52:23;19.60;56.10
29321;DHT22;16323;51.130;6.612;2023-05-20T02:54:50;19.60;56.20
29321;DHT22;16323;51.130;6.612;2023-05-20T02:57:17;19.60;56.40
29321;DHT22;16323;51.130;6.612;2023-05-20T02:59:43;19.60;56.20
29321;DHT22;16323;51.130;6.612;2023-05-20T03:02:10;19.60;56.10
29321;DHT22;16323;51.130;6.612;2023-05-20T03:04:37;19.50;56.20
29321;DHT22;16323;51.130;6.612;2023-05-20T03:07:06;19.50;56.30
29321;DHT22;16323;51.130;6.612;2023-05-20T03:09:33;19.50;56.40
29321;DHT22;16323;51.130;6.612;2023-05-20T03:12:00;19.50;56.40
29321;DHT22;16323;51.130;6.612;2023-05-20T03:14:27;19.50;56.40
29321;DHT22;16323;51.130;6.612;2023-05-20T03:16:53;19.60;56.60
29321;DHT22;16323;51.130;6.612;2023-05-20T03:19:20;19.50;56.50
29321;DHT22;16323;51.130;6.612;2023-05-20T03:21:48;19.50;56.40
29321;DHT22;16323;51.130;6.612;2023-05-20T03:24:16;19.60;56.60
29321;DHT22;16323;51.130;6.612;2023-05-20T03:26:43;19.60;56.60
29321;DHT22;16323;51.130;6.612;2023-05-20T03:29:11;19.50;56.40
29321;DHT22;16323;51.130;6.612;2023-05-20T03:31:38;19.50;56.40
29321;DHT22;16323;51.130;6.612;2023-05-20T03:34:06;19.50;56.20
29321;DHT22;16323;51.130;6.612;2023-05-20T03:36:33;19.60;56.60
29321;DHT22;16323;51.130;6.612;2023-05-20T03:39:00;19.60;56.50
29321;DHT22;16323;51.130;6.612;2023-05-20T03:41:31;19.60;56.30
29321;DHT22;16323;51.130;6.612;2023-05-20T03:43:58;19.50;56.10
29321;DHT22;16323;51.130;6.612;2023-05-20T03:46:25;19.50;56.10
29321;DHT22;16323;51.130;6.612;2023-05-20T03:48:51;19.50;56.00
29321;DHT22;16323;51.130;6.612;2023-05-20T03:51:18;19.60;55.90
29321;DHT22;16323;51.130;6.612;2023-05-20T03:53:45;19.50;55.90
29321;DHT22;16323;51.130;6.612;2023-05-20T03:56:12;19.50;56.00
29321;DHT22;16323;51.130;6.612;2023-05-20T03:58:40;19.50;55.80
29321;DHT22;16323;51.130;6.612;2023-05-20T04:01:06;19.50;55.80
29321;DHT22;16323;51.130;6.612;2023-05-20T04:03:33;19.50;55.70
29321;DHT22;16323;51.130;6.612;2023-05-20T04:06:00;19.50;55.70
29321;DHT22;16323;51.130;6.612;2023-05-20T04:08:27;19.50;55.80
29321;DHT22;16323;51.130;6.612;2023-05-20T04:10:55;19.50;55.80
29321;DHT22;16323;51.130;6.612;2023-05-20T04:13:23;19.50;55.90
29321;DHT22;16323;51.130;6.612;2023-05-20T04:15:51;19.50;57.10
29321;DHT22;16323;51.130;6.612;2023-05-20T04:18:18;19.50;55.80
29321;DHT22;16323;51.130;6.612;2023-05-20T04:20:45;19.60;56.00
29321;DHT22;16323;51.130;6.612;2023-05-20T04:23:12;19.50;56.00
29321;DHT22;16323;51.130;6.612;2023-05-20T04:25:38;19.60;56.10
29321;DHT22;16323;51.130;6.612;2023-05-20T04:28:06;19.50;55.90
29321;DHT22;16323;51.130;6.612;2023-05-20T04:30:34;19.60;56.10
29321;DHT22;16323;51.130;6.612;2023-05-20T04:33:03;19.60;56.00
29321;DHT22;16323;51.130;6.612;2023-05-20T04:35:30;19.60;56.10
29321;DHT22;16323;51.130;6.612;2023-05-20T04:37:59;19.60;56.20
29321;DHT22;16323;51.130;6.612;2023-05-20T04:40:26;19.50;55.90
29321;DHT22;16323;51.130;6.612;2023-05-20T04:42:53;19.60;56.00
29321;DHT22;16323;51.130;6.612;2023-05-20T04:45:20;19.60;56.00
29321;DHT22;16323;51.130;6.612;2023-05-20T04:47:47;19.60;55.90
29321;DHT22;16323;51.130;6.612;2023-05-20T04:50:16;19.50;55.70
29321;DHT22;16323;51.130;6.612;2023-05-20T04:52:43;19.50;55.70
29321;DHT22;16323;51.130;6.612;2023-05-20T04:55:11;19.50;55.80
29321;DHT22;16323;51.130;6.612;2023-05-20T04:57:38;19.50;55.70
29321;DHT22;16323;51.130;6.612;2023-05-20T05:00:07;19.50;55.70
29321;DHT22;16323;51.130;6.612;2023-05-20T05:02:35;19.50;55.70
29321;DHT22;16323;51.130;6.612;2023-05-20T05:05:02;19.50;55.80
29321;DHT22;16323;51.130;6.612;2023-05-20T05:07:30;19.50;55.80
29321;DHT22;16323;51.130;6.612;2023-05-20T05:09:56;19.50;55.90
29321;DHT22;16323;51.130;6.612;2023-05-20T05:12:23;19.50;55.90
29321;DHT22;16323;51.130;6.612;2023-05-20T05:14:50;19.60;55.90
29321;DHT22;16323;51.130;6.612;2023-05-20T05:17:17;19.60;56.00
29321;DHT22;16323;51.130;6.612;2023-05-20T05:19:43;19.60;55.90
29321;DHT22;16323;51.130;6.612;2023-05-20T05:22:10;19.60;56.00
29321;DHT22;16323;51.130;6.612;2023-05-20T05:24:39;19.60;56.10
29321;DHT22;16323;51.130;6.612;2023-05-20T05:27:05;19.60;56.20
29321;DHT22;16323;51.130;6.612;2023-05-20T05:29:32;19.60;56.20
29321;DHT22;16323;51.130;6.612;2023-05-20T05:31:59;19.60;56.00
29321;DHT22;16323;51.130;6.612;2023-05-20T05:34:26;19.60;56.10
29321;DHT22;16323;51.130;6.612;2023-05-20T05:36:52;19.60;56.30
29321;DHT22;16323;51.130;6.612;2023-05-20T05:39:19;19.60;56.20
29321;DHT22;16323;51.130;6.612;2023-05-20T05:41:47;19.60;56.00
29321;DHT22;16323;51.130;6.612;2023-05-20T05:44:14;19.60;55.90
29321;DHT22;16323;51.130;6.612;2023-05-20T05:46:41;19.60;55.80
29321;DHT22;16323;51.130;6.612;2023-05-20T05:49:07;19.60;55.80
29321;DHT22;16323;51.130;6.612;2023-05-20T05:51:34;19.60;55.70
29321;DHT22;16323;51.130;6.612;2023-05-20T05:54:01;19.60;55.80
29321;DHT22;16323;51.130;6.612;2023-05-20T05:56:28;19.60;56.00
29321;DHT22;16323;51.130;6.612;2023-05-20T05:58:56;19.60;56.30
29321;DHT22;16323;51.130;6.612;2023-05-20T06:01:23;19.60;56.50
29321;DHT22;16323;51.130;6.612;2023-05-20T06:03:50;19.60;56.60
29321;DHT22;16323;51.130;6.612;2023-05-20T06:06:16;19.60;56.70
29321;DHT22;16323;51.130;6.612;2023-05-20T06:08:43;19.60;56.80
29321;DHT22;16323;51.130;6.612;2023-05-20T06:11:10;19.60;56.80
29321;DHT22;16323;51.130;6.612;2023-05-20T06:13:37;19.60;56.90
29321;DHT22;16323;51.130;6.612;2023-05-20T06:16:05;19.60;56.90
29321;DHT22;16323;51.130;6.612;2023-05-20T06:18:32;19.60;57.00
29321;DHT22;16323;51.130;6.612;2023-05-20T06:20:59;19.60;57.00
29321;DHT22;16323;51.130;6.612;2023-05-20T06:23:26;19.60;57.00
29321;DHT22;16323;51.130;6.612;2023-05-20T06:25:56;19.60;57.10
29321;DHT22;16323;51.130;6.612;2023-05-20T06:28:24;19.70;57.30
29321;DHT22;16323;51.130;6.612;2023-05-20T06:30:51;19.70;57.30
29321;DHT22;16323;51.130;6.612;2023-05-20T06:33:22;19.70;57.40
29321;DHT22;16323;51.130;6.612;2023-05-20T06:35:50;19.70;57.40
29321;DHT22;16323;51.130;6.612;2023-05-20T06:38:17;19.70;57.40
29321;DHT22;16323;51.130;6.612;2023-05-20T06:40:44;19.70;57.50
29321;DHT22;16323;51.130;6.612;2023-05-20T06:43:10;19.70;57.60
29321;DHT22;16323;51.130;6.612;2023-05-20T06:45:37;19.70;57.60
29321;DHT22;16323;51.130;6.612;2023-05-20T06:48:04;19.70;57.70
29321;DHT22;16323;51.130;6.612;2023-05-20T06:50:32;19.70;57.70
29321;DHT22;16323;51.130;6.612;2023-05-20T06:52:59;19.70;57.80
29321;DHT22;16323;51.130;6.612;2023-05-20T06:55:26;19.70;57.90
29321;DHT22;16323;51.130;6.612;2023-05-20T06:57:53;19.70;58.00
29321;DHT22;16323;51.130;6.612;2023-05-20T07:00:20;19.70;58.10
29321;DHT22;16323;51.130;6.612;2023-05-20T07:02:47;19.70;58.10
29321;DHT22;16323;51.130;6.612;2023-05-20T07:05:13;19.70;58.10
29321;DHT22;16323;51.130;6.612;2023-05-20T07:07:42;19.70;58.20
29321;DHT22;16323;51.130;6.612;2023-05-20T07:10:09;19.70;58.20
29321;DHT22;16323;51.130;6.612;2023-05-20T07:12:35;19.70;58.20
29321;DHT22;16323;51.130;6.612;2023-05-20T07:15:03;19.70;58.10
29321;DHT22;16323;51.130;6.612;2023-05-20T07:17:29;19.70;58.30
29321;DHT22;16323;51.130;6.612;2023-05-20T07:19:56;19.70;58.30
29321;DHT22;16323;51.130;6.612;2023-05-20T07:22:23;19.70;58.30
29321;DHT22;16323;51.130;6.612;2023-05-20T07:24:51;19.70;58.30
29321;DHT22;16323;51.130;6.612;2023-05-20T07:27:18;19.70;58.40
29321;DHT22;16323;51.130;6.612;2023-05-20T07:29:44;19.70;58.40
29321;DHT22;16323;51.130;6.612;2023-05-20T07:32:11;19.70;58.50
29321;DHT22;16323;51.130;6.612;2023-05-20T07:34:38;19.70;58.50
29321;DHT22;16323;51.130;6.612;2023-05-20T07:37:05;19.70;58.50
29321;DHT22;16323;51.130;6.612;2023-05-20T07:39:31;19.70;58.50
29321;DHT22;16323;51.130;6.612;2023-05-20T07:41:59;19.70;58.50
29321;DHT22;16323;51.130;6.612;2023-05-20T07:44:26;19.70;58.50
29321;DHT22;16323;51.130;6.612;2023-05-20T07:46:54;19.70;58.60
29321;DHT22;16323;51.130;6.612;2023-05-20T07:49:21;19.70;58.60
29321;DHT22;16323;51.130;6.612;2023-05-20T07:51:48;19.70;58.70
29321;DHT22;16323;51.130;6.612;2023-05-20T07:54:15;19.70;58.70
29321;DHT22;16323;51.130;6.612;2023-05-20T07:56:42;19.70;58.60
29321;DHT22;16323;51.130;6.612;2023-05-20T07:59:10;19.70;58.70
29321;DHT22;16323;51.130;6.612;2023-05-20T08:01:39;19.70;59.60
29321;DHT22;16323;51.130;6.612;2023-05-20T08:04:06;19.70;59.30
29321;DHT22;16323;51.130;6.612;2023-05-20T08:06:33;19.70;59.20
29321;DHT22;16323;51.130;6.612;2023-05-20T08:09:01;19.70;59.30
29321;DHT22;16323;51.130;6.612;2023-05-20T08:11:28;19.70;59.20
29321;DHT22;16323;51.130;6.612;2023-05-20T08:13:55;19.70;59.10
29321;DHT22;16323;51.130;6.612;2023-05-20T08:16:23;19.70;59.00
29321;DHT22;16323;51.130;6.612;2023-05-20T08:18:50;19.70;59.10
29321;DHT22;16323;51.130;6.612;2023-05-20T08:21:16;19.70;58.90
29321;DHT22;16323;51.130;6.612;2023-05-20T08:23:43;19.80;58.90
29321;DHT22;16323;51.130;6.612;2023-05-20T08:26:10;19.80;58.90
29321;DHT22;16323;51.130;6.612;2023-05-20T08:28:37;19.80;58.90
29321;DHT22;16323;51.130;6.612;2023-05-20T08:31:04;19.80;58.90
29321;DHT22;16323;51.130;6.612;2023-05-20T08:33:32;19.80;59.00
29321;DHT22;16323;51.130;6.612;2023-05-20T08:35:59;19.80;59.00
29321;DHT22;16323;51.130;6.612;2023-05-20T08:38:26;19.80;58.90
29321;DHT22;16323;51.130;6.612;2023-05-20T08:40:54;19.80;58.80
29321;DHT22;16323;51.130;6.612;2023-05-20T08:43:22;19.80;58.70
29321;DHT22;16323;51.130;6.612;2023-05-20T08:45:48;19.80;58.70
29321;DHT22;16323;51.130;6.612;2023-05-20T08:48:17;19.80;58.80
29321;DHT22;16323;51.130;6.612;2023-05-20T08:50:49;19.80;58.80
29321;DHT22;16323;51.130;6.612;2023-05-20T08:53:16;19.80;59.00
29321;DHT22;16323;51.130;6.612;2023-05-20T08:55:45;19.80;58.80
29321;DHT22;16323;51.130;6.612;2023-05-20T08:58:13;19.80;58.80
29321;DHT22;16323;51.130;6.612;2023-05-20T09:00:40;19.80;58.90
29321;DHT22;16323;51.130;6.612;2023-05-20T09:03:07;19.80;59.70
29321;DHT22;16323;51.130;6.612;2023-05-20T09:05:34;19.80;59.90
29321;DHT22;16323;51.130;6.612;2023-05-20T09:08:06;19.90;59.80
29321;DHT22;16323;51.130;6.612;2023-05-20T09:10:33;19.80;59.90
29321;DHT22;16323;51.130;6.612;2023-05-20T09:13:01;19.80;60.10
29321;DHT22;16323;51.130;6.612;2023-05-20T09:15:28;19.80;59.70
29321;DHT22;16323;51.130;6.612;2023-05-20T09:17:58;19.80;59.50
29321;DHT22;16323;51.130;6.612;2023-05-20T09:20:25;19.90;59.50
29321;DHT22;16323;51.130;6.612;2023-05-20T09:22:57;19.90;59.40
29321;DHT22;16323;51.130;6.612;2023-05-20T09:25:26;19.90;60.50
29321;DHT22;16323;51.130;6.612;2023-05-20T09:27:53;19.90;59.30
29321;DHT22;16323;51.130;6.612;2023-05-20T09:30:20;19.90;59.30
29321;DHT22;16323;51.130;6.612;2023-05-20T09:32:52;19.90;60.30
29321;DHT22;16323;51.130;6.612;2023-05-20T09:35:20;19.90;59.20
29321;DHT22;16323;51.130;6.612;2023-05-20T09:37:47;19.90;59.20
29321;DHT22;16323;51.130;6.612;2023-05-20T09:40:14;19.90;59.20
29321;DHT22;16323;51.130;6.612;2023-05-20T09:42:53;19.90;59.20
29321;DHT22;16323;51.130;6.612;2023-05-20T09:45:21;19.90;59.20
29321;DHT22;16323;51.130;6.612;2023-05-20T09:47:49;19.90;59.20
29321;DHT22;16323;51.130;6.612;2023-05-20T09:50:18;19.90;59.20
29321;DHT22;16323;51.130;6.612;2023-05-20T09:52:46;19.90;59.30
29321;DHT22;16323;51.130;6.612;2023-05-20T09:55:14;19.90;59.30
29321;DHT22;16323;51.130;6.612;2023-05-20T09:57:43;19.80;59.30
29321;DHT22;16323;51.130;6.612;2023-05-20T10:00:11;19.90;59.50
29321;DHT22;16323;51.130;6.612;2023-05-20T10:02:41;19.80;59.40
29321;DHT22;16323;51.130;6.612;2023-05-20T10:05:16;19.80;59.40
29321;DHT22;16323;51.130;6.612;2023-05-20T10:08:08;19.80;59.40
29321;DHT22;16323;51.130;6.612;2023-05-20T10:10:43;19.80;59.40
29321;DHT22;16323;51.130;6.612;2023-05-20T10:13:26;19.80;59.50
29321;DHT22;16323;51.130;6.612;2023-05-20T10:16:02;19.80;59.50
29321;DHT22;16323;51.130;6.612;2023-05-20T10:18:42;19.80;59.50
29321;DHT22;16323;51.130;6.612;2023-05-20T10:21:14;19.80;59.60
29321;DHT22;16323;51.130;6.612;2023-05-20T10:23:42;19.80;59.60
29321;DHT22;16323;51.130;6.612;2023-05-20T10:26:09;19.80;60.70
29321;DHT22;16323;51.130;6.612;2023-05-20T10:28:39;19.90;59.60
29321;DHT22;16323;51.130;6.612;2023-05-20T10:31:17;19.90;59.60
29321;DHT22;16323;51.130;6.612;2023-05-20T10:33:44;19.90;59.70
29321;DHT22;16323;51.130;6.612;2023-05-20T10:36:22;19.90;59.70
29321;DHT22;16323;51.130;6.612;2023-05-20T10:38:52;19.90;59.70
29321;DHT22;16323;51.130;6.612;2023-05-20T10:41:20;19.90;59.70
29321;DHT22;16323;51.130;6.612;2023-05-20T10:43:58;19.90;59.70
29321;DHT22;16323;51.130;6.612;2023-05-20T10:46:25;19.80;59.80
29321;DHT22;16323;51.130;6.612;2023-05-20T10:48:52;19.80;59.80
29321;DHT22;16323;51.130;6.612;2023-05-20T10:51:19;19.80;59.90
29321;DHT22;16323;51.130;6.612;2023-05-20T10:53:46;19.80;59.90
29321;DHT22;16323;51.130;6.612;2023-05-20T10:56:17;19.80;59.90
29321;DHT22;16323;51.130;6.612;2023-05-20T10:58:44;19.80;60.00
29321;DHT22;16323;51.130;6.612;2023-05-20T11:01:13;19.80;60.10
29321;DHT22;16323;51.130;6.612;2023-05-20T11:03:41;19.80;60.20
29321;DHT22;16323;51.130;6.612;2023-05-20T11:06:12;19.80;60.30
29321;DHT22;16323;51.130;6.612;2023-05-20T11:08:38;19.80;60.50
29321;DHT22;16323;51.130;6.612;2023-05-20T11:11:05;19.80;60.30
29321;DHT22;16323;51.130;6.612;2023-05-20T11:13:32;19.80;60.40
29321;DHT22;16323;51.130;6.612;2023-05-20T11:16:00;19.80;60.40
29321;DHT22;16323;51.130;6.612;2023-05-20T11:18:28;19.80;60.50
29321;DHT22;16323;51.130;6.612;2023-05-20T11:20:56;19.80;60.30
29321;DHT22;16323;51.130;6.612;2023-05-20T11:23:24;19.80;60.30
29321;DHT22;16323;51.130;6.612;2023-05-20T11:25:53;19.80;60.20
29321;DHT22;16323;51.130;6.612;2023-05-20T11:28:20;19.90;60.30
29321;DHT22;16323;51.130;6.612;2023-05-20T11:30:47;19.90;60.40
29321;DHT22;16323;51.130;6.612;2023-05-20T11:33:16;19.90;60.40
29321;DHT22;16323;51.130;6.612;2023-05-20T11:35:45;19.90;60.30
29321;DHT22;16323;51.130;6.612;2023-05-20T11:38:13;19.90;60.30
29321;DHT22;16323;51.130;6.612;2023-05-20T11:40:43;19.90;60.30
29321;DHT22;16323;51.130;6.612;2023-05-20T11:43:11;19.90;60.30
29321;DHT22;16323;51.130;6.612;2023-05-20T11:45:39;19.90;60.30
29321;DHT22;16323;51.130;6.612;2023-05-20T11:48:07;19.80;60.20
29321;DHT22;16323;51.130;6.612;2023-05-20T11:50:35;19.80;60.30
29321;DHT22;16323;51.130;6.612;2023-05-20T11:53:06;19.90;60.40
29321;DHT22;16323;51.130;6.612;2023-05-20T11:55:33;19.90;60.40
29321;DHT22;16323;51.130;6.612;2023-05-20T11:58:01;19.90;60.60
29321;DHT22;16323;51.130;6.612;2023-05-20T12:00:28;19.90;60.50
29321;DHT22;16323;51.130;6.612;2023-05-20T12:02:55;19.90;60.50
29321;DHT22;16323;51.130;6.612;2023-05-20T12:05:22;19.90;60.60
29321;DHT22;16323;51.130;6.612;2023-05-20T12:07:48;19.80;60.50
29321;DHT22;16323;51.130;6.612;2023-05-20T12:10:17;19.90;60.60
29321;DHT22;16323;51.130;6.612;2023-05-20T12:12:43;19.80;60.50
29321;DHT22;16323;51.130;6.612;2023-05-20T12:15:11;19.80;60.50
29321;DHT22;16323;51.130;6.612;2023-05-20T12:17:45;19.80;60.50
29321;DHT22;16323;51.130;6.612;2023-05-20T12:20:14;19.90;60.50
29321;DHT22;16323;51.130;6.612;2023-05-20T12:22:42;19.90;60.50
29321;DHT22;16323;51.130;6.612;2023-05-20T12:25:10;19.90;60.50
29321;DHT22;16323;51.130;6.612;2023-05-20T12:27:39;19.90;60.50
29321;DHT22;16323;51.130;6.612;2023-05-20T12:30:06;19.90;60.60
29321;DHT22;16323;51.130;6.612;2023-05-20T12:32:34;19.90;60.60
29321;DHT22;16323;51.130;6.612;2023-05-20T12:35:01;19.90;60.70
29321;DHT22;16323;51.130;6.612;2023-05-20T12:37:28;19.90;60.70
29321;DHT22;16323;51.130;6.612;2023-05-20T12:39:54;19.90;60.70
29321;DHT22;16323;51.130;6.612;2023-05-20T12:42:21;19.90;60.80
29321;DHT22;16323;51.130;6.612;2023-05-20T12:44:49;19.90;60.80
29321;DHT22;16323;51.130;6.612;2023-05-20T12:47:16;19.90;60.90
29321;DHT22;16323;51.130;6.612;2023-05-20T12:49:43;19.90;61.00
29321;DHT22;16323;51.130;6.612;2023-05-20T12:52:10;19.90;61.20
29321;DHT22;16323;51.130;6.612;2023-05-20T12:54:37;19.90;61.30
29321;DHT22;16323;51.130;6.612;2023-05-20T12:57:04;19.90;61.20
29321;DHT22;16323;51.130;6.612;2023-05-20T12:59:30;19.90;61.20
29321;DHT22;16323;51.130;6.612;2023-05-20T13:01:59;19.90;61.10
29321;DHT22;16323;51.130;6.612;2023-05-20T13:04:25;19.90;62.20
29321;DHT22;16323;51.130;6.612;2023-05-20T13:06:52;19.90;61.20
29321;DHT22;16323;51.130;6.612;2023-05-20T13:09:19;19.90;61.40
29321;DHT22;16323;51.130;6.612;2023-05-20T13:11:46;19.90;61.30
29321;DHT22;16323;51.130;6.612;2023-05-20T13:14:12;19.90;61.20
29321;DHT22;16323;51.130;6.612;2023-05-20T13:16:39;19.90;61.20
29321;DHT22;16323;51.130;6.612;2023-05-20T13:19:08;19.90;61.30
29321;DHT22;16323;51.130;6.612;2023-05-20T13:21:34;19.90;61.30
29321;DHT22;16323;51.130;6.612;2023-05-20T13:24:02;19.90;61.30
29321;DHT22;16323;51.130;6.612;2023-05-20T13:26:28;19.90;61.30
29321;DHT22;16323;51.130;6.612;2023-05-20T13:28:55;19.90;61.40
29321;DHT22;16323;51.130;6.612;2023-05-20T13:31:23;19.90;61.20
29321;DHT22;16323;51.130;6.612;2023-05-20T13:33:50;20.00;61.40
29321;DHT22;16323;51.130;6.612;2023-05-20T13:36:18;19.90;61.30
29321;DHT22;16323;51.130;6.612;2023-05-20T13:38:45;19.90;61.30
29321;DHT22;16323;51.130;6.612;2023-05-20T13:41:12;19.90;61.30
29321;DHT22;16323;51.130;6.612;2023-05-20T13:43:39;19.90;61.40
29321;DHT22;16323;51.130;6.612;2023-05-20T13:46:06;19.90;61.50
29321;DHT22;16323;51.130;6.612;2023-05-20T13:48:33;20.00;61.60
29321;DHT22;16323;51.130;6.612;2023-05-20T13:51:00;19.90;61.50
29321;DHT22;16323;51.130;6.612;2023-05-20T13:53:28;19.90;61.40
29321;DHT22;16323;51.130;6.612;2023-05-20T13:55:55;19.90;61.40
29321;DHT22;16323;51.130;6.612;2023-05-20T13:58:23;19.90;61.50
29321;DHT22;16323;51.130;6.612;2023-05-20T14:00:50;19.90;61.50
29321;DHT22;16323;51.130;6.612;2023-05-20T14:03:16;19.90;61.50
29321;DHT22;16323;51.130;6.612;2023-05-20T14:05:44;19.90;61.50
29321;DHT22;16323;51.130;6.612;2023-05-20T14:08:11;19.90;61.40
29321;DHT22;16323;51.130;6.612;2023-05-20T14:10:39;19.90;61.50
29321;DHT22;16323;51.130;6.612;2023-05-20T14:13:06;19.90;61.50
29321;DHT22;16323;51.130;6.612;2023-05-20T14:15:33;19.90;61.40
29321;DHT22;16323;51.130;6.612;2023-05-20T14:18:00;19.90;61.40
29321;DHT22;16323;51.130;6.612;2023-05-20T14:20:26;19.90;61.50
29321;DHT22;16323;51.130;6.612;2023-05-20T14:22:53;19.90;61.50
29321;DHT22;16323;51.130;6.612;2023-05-20T14:25:20;19.90;61.60
29321;DHT22;16323;51.130;6.612;2023-05-20T14:27:49;20.00;61.80
29321;DHT22;16323;51.130;6.612;2023-05-20T14:30:15;20.00;61.90
29321;DHT22;16323;51.130;6.612;2023-05-20T14:32:42;20.00;62.10
29321;DHT22;16323;51.130;6.612;2023-05-20T14:35:09;20.00;62.10
29321;DHT22;16323;51.130;6.612;2023-05-20T14:37:36;20.00;62.20
29321;DHT22;16323;51.130;6.612;2023-05-20T14:40:04;20.00;62.20
29321;DHT22;16323;51.130;6.612;2023-05-20T14:42:32;20.00;62.20
29321;DHT22;16323;51.130;6.612;2023-05-20T14:45:00;20.00;62.40
29321;DHT22;16323;51.130;6.612;2023-05-20T14:47:26;20.00;62.50
29321;DHT22;16323;51.130;6.612;2023-05-20T14:49:53;20.00;62.50
29321;DHT22;16323;51.130;6.612;2023-05-20T14:52:20;20.00;62.60
29321;DHT22;16323;51.130;6.612;2023-05-20T14:54:47;20.00;62.70
29321;DHT22;16323;51.130;6.612;2023-05-20T14:57:13;20.00;62.70
29321;DHT22;16323;51.130;6.612;2023-05-20T14:59:41;19.90;62.70
29321;DHT22;16323;51.130;6.612;2023-05-20T15:02:09;19.90;62.60
29321;DHT22;16323;51.130;6.612;2023-05-20T15:04:38;20.00;62.70
29321;DHT22;16323;51.130;6.612;2023-05-20T15:07:04;19.90;62.60
29321;DHT22;16323;51.130;6.612;2023-05-20T15:09:31;20.00;62.80
29321;DHT22;16323;51.130;6.612;2023-05-20T15:11:59;20.00;62.80
29321;DHT22;16323;51.130;6.612;2023-05-20T15:14:26;19.90;62.60
29321;DHT22;16323;51.130;6.612;2023-05-20T15:16:53;19.90;62.60
29321;DHT22;16323;51.130;6.612;2023-05-20T15:19:21;20.00;62.60
29321;DHT22;16323;51.130;6.612;2023-05-20T15:21:48;20.00;62.70
29321;DHT22;16323;51.130;6.612;2023-05-20T15:24:16;20.00;62.60
29321;DHT22;16323;51.130;6.612;2023-05-20T15:26:43;20.00;62.60
29321;DHT22;16323;51.130;6.612;2023-05-20T15:29:10;20.00;62.60
29321;DHT22;16323;51.130;6.612;2023-05-20T15:31:36;20.00;62.50